sensor_id;sensor_type;location;lat;lon;timestamp;P1;durP1;ratioP1;P2;durP2;ratioP2
59040;SDS011;44825;53.200;6.448;2024-02-26T00:01:31;17.48;;;10.50;;
59040;SDS011;44825;53.200;6.448;2024-02-26T00:04:11;14.73;;;9.57;;
59040;SDS011;44825;53.200;6.448;2024-02-26T00:09:04;14.65;;;9.82;;
59040;SDS011;44825;53.200;6.448;2024-02-26T00:11:31;16.15;;;10.10;;
59040;SDS011;44825;53.200;6.448;2024-02-26T00:13:57;18.35;;;11.02;;
59040;SDS011;44825;53.200;6.448;2024-02-26T00:16:30;19.50;;;11.52;;
59040;SDS011;44825;53.200;6.448;2024-02-26T00:18:56;16.20;;;11.13;;
59040;SDS011;44825;53.200;6.448;2024-02-26T00:21:23;16.52;;;10.23;;
59040;SDS011;44825;53.200;6.448;2024-02-26T00:23:49;18.55;;;10.50;;
59040;SDS011;44825;53.200;6.448;2024-02-26T00:26:15;15.15;;;9.95;;
59040;SDS011;44825;53.200;6.448;2024-02-26T00:28:41;13.82;;;9.05;;
59040;SDS011;44825;53.200;6.448;2024-02-26T00:31:07;14.75;;;9.80;;
59040;SDS011;44825;53.200;6.448;2024-02-26T00:33:33;13.60;;;9.52;;
59040;SDS011;44825;53.200;6.448;2024-02-26T00:35:59;15.05;;;9.23;;
59040;SDS011;44825;53.200;6.448;2024-02-26T00:38:25;15.25;;;9.10;;
59040;SDS011;44825;53.200;6.448;2024-02-26T00:40:51;14.52;;;9.55;;
59040;SDS011;44825;53.200;6.448;2024-02-26T00:43:24;15.10;;;10.63;;
59040;SDS011;44825;53.200;6.448;2024-02-26T00:45:56;16.13;;;10.43;;
59040;SDS011;44825;53.200;6.448;2024-02-26T00:48:22;15.88;;;10.05;;
59040;SDS011;44825;53.200;6.448;2024-02-26T00:50:50;13.48;;;9.25;;
59040;SDS011;44825;53.200;6.448;2024-02-26T00:53:16;14.10;;;9.48;;
59040;SDS011;44825;53.200;6.448;2024-02-26T00:55:42;15.45;;;10.00;;
59040;SDS011;44825;53.200;6.448;2024-02-26T00:58:08;13.02;;;8.60;;
59040;SDS011;44825;53.200;6.448;2024-02-26T01:00:35;13.82;;;9.15;;
59040;SDS011;44825;53.200;6.448;2024-02-26T01:03:07;12.88;;;8.45;;
59040;SDS011;44825;53.200;6.448;2024-02-26T01:05:34;14.05;;;9.07;;
59040;SDS011;44825;53.200;6.448;2024-02-26T01:08:01;13.95;;;9.60;;
59040;SDS011;44825;53.200;6.448;2024-02-26T01:10:27;12.60;;;8.70;;
59040;SDS011;44825;53.200;6.448;2024-02-26T01:12:53;12.75;;;8.73;;
59040;SDS011;44825;53.200;6.448;2024-02-26T01:15:19;12.45;;;8.15;;
59040;SDS011;44825;53.200;6.448;2024-02-26T01:17:48;13.70;;;8.27;;
59040;SDS011;44825;53.200;6.448;2024-02-26T01:20:14;10.88;;;7.20;;
59040;SDS011;44825;53.200;6.448;2024-02-26T01:22:41;11.45;;;7.85;;
59040;SDS011;44825;53.200;6.448;2024-02-26T01:25:08;10.70;;;7.35;;
59040;SDS011;44825;53.200;6.448;2024-02-26T01:27:37;10.55;;;7.07;;
59040;SDS011;44825;53.200;6.448;2024-02-26T01:30:03;11.07;;;6.65;;
59040;SDS011;44825;53.200;6.448;2024-02-26T01:32:30;10.48;;;6.78;;
59040;SDS011;44825;53.200;6.448;2024-02-26T01:34:56;12.13;;;6.70;;
59040;SDS011;44825;53.200;6.448;2024-02-26T01:37:22;9.25;;;6.32;;
59040;SDS011;44825;53.200;6.448;2024-02-26T01:39:48;9.82;;;6.35;;
59040;SDS011;44825;53.200;6.448;2024-02-26T01:42:14;9.43;;;6.35;;
59040;SDS011;44825;53.200;6.448;2024-02-26T01:44:40;8.90;;;6.03;;
59040;SDS011;44825;53.200;6.448;2024-02-26T01:47:07;9.90;;;6.40;;
59040;SDS011;44825;53.200;6.448;2024-02-26T01:49:35;9.27;;;6.60;;
59040;SDS011;44825;53.200;6.448;2024-02-26T01:52:07;9.67;;;5.63;;
59040;SDS011;44825;53.200;6.448;2024-02-26T01:54:34;9.18;;;5.85;;
59040;SDS011;44825;53.200;6.448;2024-02-26T01:57:01;8.45;;;5.35;;
59040;SDS011;44825;53.200;6.448;2024-02-26T01:59:34;8.95;;;5.18;;
59040;SDS011;44825;53.200;6.448;2024-02-26T02:02:01;8.48;;;5.18;;
59040;SDS011;44825;53.200;6.448;2024-02-26T02:04:29;8.15;;;4.53;;
59040;SDS011;44825;53.200;6.448;2024-02-26T02:07:01;8.82;;;4.85;;
59040;SDS011;44825;53.200;6.448;2024-02-26T02:09:28;7.90;;;4.75;;
59040;SDS011;44825;53.200;6.448;2024-02-26T02:11:54;8.40;;;5.40;;
59040;SDS011;44825;53.200;6.448;2024-02-26T02:14:20;8.52;;;5.15;;
59040;SDS011;44825;53.200;6.448;2024-02-26T02:16:47;10.95;;;5.60;;
59040;SDS011;44825;53.200;6.448;2024-02-26T02:19:13;8.35;;;5.20;;
59040;SDS011;44825;53.200;6.448;2024-02-26T02:21:39;8.10;;;5.15;;
59040;SDS011;44825;53.200;6.448;2024-02-26T02:24:05;8.07;;;5.32;;
59040;SDS011;44825;53.200;6.448;2024-02-26T02:26:31;7.50;;;4.95;;
59040;SDS011;44825;53.200;6.448;2024-02-26T02:28:57;9.50;;;5.47;;
59040;SDS011;44825;53.200;6.448;2024-02-26T02:31:24;7.85;;;5.32;;
59040;SDS011;44825;53.200;6.448;2024-02-26T02:33:50;8.15;;;5.10;;
59040;SDS011;44825;53.200;6.448;2024-02-26T02:36:17;8.60;;;5.00;;
59040;SDS011;44825;53.200;6.448;2024-02-26T02:38:49;9.25;;;6.13;;
59040;SDS011;44825;53.200;6.448;2024-02-26T02:41:15;8.70;;;5.30;;
59040;SDS011;44825;53.200;6.448;2024-02-26T02:43:41;7.47;;;5.22;;
59040;SDS011;44825;53.200;6.448;2024-02-26T02:46:07;8.88;;;5.10;;
59040;SDS011;44825;53.200;6.448;2024-02-26T02:48:41;7.68;;;4.80;;
59040;SDS011;44825;53.200;6.448;2024-02-26T02:51:08;8.60;;;5.35;;
59040;SDS011;44825;53.200;6.448;2024-02-26T02:53:34;7.10;;;4.63;;
59040;SDS011;44825;53.200;6.448;2024-02-26T02:56:01;7.90;;;4.93;;
59040;SDS011;44825;53.200;6.448;2024-02-26T02:58:27;7.32;;;4.53;;
59040;SDS011;44825;53.200;6.448;2024-02-26T03:00:53;8.48;;;5.25;;
59040;SDS011;44825;53.200;6.448;2024-02-26T03:03:20;6.45;;;4.20;;
59040;SDS011;44825;53.200;6.448;2024-02-26T03:05:49;9.18;;;4.47;;
59040;SDS011;44825;53.200;6.448;2024-02-26T03:08:15;11.73;;;5.00;;
59040;SDS011;44825;53.200;6.448;2024-02-26T03:10:41;6.95;;;3.88;;
59040;SDS011;44825;53.200;6.448;2024-02-26T03:13:08;7.00;;;4.13;;
59040;SDS011;44825;53.200;6.448;2024-02-26T03:15:34;7.05;;;4.15;;
59040;SDS011;44825;53.200;6.448;2024-02-26T03:18:00;6.97;;;3.75;;
59040;SDS011;44825;53.200;6.448;2024-02-26T03:20:26;6.95;;;3.63;;
59040;SDS011;44825;53.200;6.448;2024-02-26T03:22:52;6.95;;;3.58;;
59040;SDS011;44825;53.200;6.448;2024-02-26T03:25:18;7.43;;;4.22;;
59040;SDS011;44825;53.200;6.448;2024-02-26T03:27:45;6.65;;;3.67;;
59040;SDS011;44825;53.200;6.448;2024-02-26T03:30:11;9.35;;;3.83;;
59040;SDS011;44825;53.200;6.448;2024-02-26T03:32:37;7.13;;;3.88;;
59040;SDS011;44825;53.200;6.448;2024-02-26T03:35:03;6.25;;;3.58;;
59040;SDS011;44825;53.200;6.448;2024-02-26T03:37:29;6.57;;;3.72;;
59040;SDS011;44825;53.200;6.448;2024-02-26T03:39:55;7.35;;;3.70;;
59040;SDS011;44825;53.200;6.448;2024-02-26T03:42:22;6.22;;;3.58;;
59040;SDS011;44825;53.200;6.448;2024-02-26T03:44:48;7.55;;;4.07;;
59040;SDS011;44825;53.200;6.448;2024-02-26T03:47:15;5.15;;;3.05;;
59040;SDS011;44825;53.200;6.448;2024-02-26T03:49:41;6.60;;;3.53;;
59040;SDS011;44825;53.200;6.448;2024-02-26T03:52:07;7.60;;;3.85;;
59040;SDS011;44825;53.200;6.448;2024-02-26T03:54:47;7.00;;;3.70;;
59040;SDS011;44825;53.200;6.448;2024-02-26T03:57:13;5.75;;;3.47;;
59040;SDS011;44825;53.200;6.448;2024-02-26T03:59:39;8.20;;;3.42;;
59040;SDS011;44825;53.200;6.448;2024-02-26T04:02:05;7.13;;;3.33;;
59040;SDS011;44825;53.200;6.448;2024-02-26T04:04:38;7.63;;;3.97;;
59040;SDS011;44825;53.200;6.448;2024-02-26T04:07:04;6.57;;;3.13;;
59040;SDS011;44825;53.200;6.448;2024-02-26T04:09:31;6.55;;;3.58;;
59040;SDS011;44825;53.200;6.448;2024-02-26T04:11:57;6.68;;;2.90;;
59040;SDS011;44825;53.200;6.448;2024-02-26T04:14:30;7.50;;;3.35;;
59040;SDS011;44825;53.200;6.448;2024-02-26T04:16:56;6.25;;;3.10;;
59040;SDS011;44825;53.200;6.448;2024-02-26T04:19:22;7.30;;;3.60;;
59040;SDS011;44825;53.200;6.448;2024-02-26T04:21:48;7.55;;;2.85;;
59040;SDS011;44825;53.200;6.448;2024-02-26T04:24:14;7.75;;;3.42;;
59040;SDS011;44825;53.200;6.448;2024-02-26T04:26:41;6.35;;;2.58;;
59040;SDS011;44825;53.200;6.448;2024-02-26T04:31:40;5.90;;;2.90;;
59040;SDS011;44825;53.200;6.448;2024-02-26T04:34:14;7.47;;;3.35;;
59040;SDS011;44825;53.200;6.448;2024-02-26T04:36:40;6.40;;;3.30;;
59040;SDS011;44825;53.200;6.448;2024-02-26T04:39:07;7.25;;;3.08;;
59040;SDS011;44825;53.200;6.448;2024-02-26T04:41:33;5.57;;;2.95;;
59040;SDS011;44825;53.200;6.448;2024-02-26T04:43:59;7.65;;;3.15;;
59040;SDS011;44825;53.200;6.448;2024-02-26T04:46:25;6.68;;;3.13;;
59040;SDS011;44825;53.200;6.448;2024-02-26T04:48:57;7.07;;;3.13;;
59040;SDS011;44825;53.200;6.448;2024-02-26T04:51:23;7.00;;;3.08;;
59040;SDS011;44825;53.200;6.448;2024-02-26T04:56:18;5.50;;;2.78;;
59040;SDS011;44825;53.200;6.448;2024-02-26T04:58:44;8.48;;;2.80;;
59040;SDS011;44825;53.200;6.448;2024-02-26T05:01:17;6.43;;;2.70;;
59040;SDS011;44825;53.200;6.448;2024-02-26T05:03:50;5.90;;;2.30;;
59040;SDS011;44825;53.200;6.448;2024-02-26T05:06:23;8.95;;;2.10;;
59040;SDS011;44825;53.200;6.448;2024-02-26T05:11:28;6.75;;;1.70;;
59040;SDS011;44825;53.200;6.448;2024-02-26T05:13:54;6.70;;;2.20;;
59040;SDS011;44825;53.200;6.448;2024-02-26T05:16:27;4.90;;;2.08;;
59040;SDS011;44825;53.200;6.448;2024-02-26T05:19:01;5.00;;;2.00;;
59040;SDS011;44825;53.200;6.448;2024-02-26T05:21:33;4.80;;;2.10;;
59040;SDS011;44825;53.200;6.448;2024-02-26T05:23:59;7.28;;;2.45;;
59040;SDS011;44825;53.200;6.448;2024-02-26T05:26:25;3.92;;;2.00;;
59040;SDS011;44825;53.200;6.448;2024-02-26T05:28:51;5.70;;;2.22;;
59040;SDS011;44825;53.200;6.448;2024-02-26T05:31:18;4.05;;;1.85;;
59040;SDS011;44825;53.200;6.448;2024-02-26T05:33:44;3.22;;;1.73;;
59040;SDS011;44825;53.200;6.448;2024-02-26T05:36:10;3.80;;;2.00;;
59040;SDS011;44825;53.200;6.448;2024-02-26T05:38:36;3.33;;;1.85;;
59040;SDS011;44825;53.200;6.448;2024-02-26T05:41:02;3.47;;;2.17;;
59040;SDS011;44825;53.200;6.448;2024-02-26T05:43:29;4.70;;;2.25;;
59040;SDS011;44825;53.200;6.448;2024-02-26T05:45:55;3.75;;;2.05;;
59040;SDS011;44825;53.200;6.448;2024-02-26T05:48:22;5.20;;;2.22;;
59040;SDS011;44825;53.200;6.448;2024-02-26T05:50:48;5.25;;;2.10;;
59040;SDS011;44825;53.200;6.448;2024-02-26T05:53:20;4.13;;;1.75;;
59040;SDS011;44825;53.200;6.448;2024-02-26T05:55:52;4.70;;;1.80;;
59040;SDS011;44825;53.200;6.448;2024-02-26T05:58:18;3.40;;;1.65;;
59040;SDS011;44825;53.200;6.448;2024-02-26T06:00:51;3.78;;;1.67;;
59040;SDS011;44825;53.200;6.448;2024-02-26T06:03:17;2.87;;;1.40;;
59040;SDS011;44825;53.200;6.448;2024-02-26T06:05:50;3.40;;;1.60;;
59040;SDS011;44825;53.200;6.448;2024-02-26T06:08:16;5.05;;;1.50;;
59040;SDS011;44825;53.200;6.448;2024-02-26T06:10:42;6.85;;;2.38;;
59040;SDS011;44825;53.200;6.448;2024-02-26T06:13:15;3.25;;;1.30;;
59040;SDS011;44825;53.200;6.448;2024-02-26T06:15:41;2.63;;;1.57;;
59040;SDS011;44825;53.200;6.448;2024-02-26T06:18:23;2.63;;;1.23;;
59040;SDS011;44825;53.200;6.448;2024-02-26T06:23:21;4.20;;;1.30;;
59040;SDS011;44825;53.200;6.448;2024-02-26T06:25:54;2.97;;;1.40;;
59040;SDS011;44825;53.200;6.448;2024-02-26T06:28:20;4.18;;;1.17;;
59040;SDS011;44825;53.200;6.448;2024-02-26T06:30:46;2.47;;;1.33;;
59040;SDS011;44825;53.200;6.448;2024-02-26T06:33:12;2.45;;;1.38;;
59040;SDS011;44825;53.200;6.448;2024-02-26T06:35:39;2.45;;;1.15;;
59040;SDS011;44825;53.200;6.448;2024-02-26T06:38:05;2.88;;;1.40;;
59040;SDS011;44825;53.200;6.448;2024-02-26T06:40:45;3.65;;;1.85;;
59040;SDS011;44825;53.200;6.448;2024-02-26T06:43:11;3.42;;;1.58;;
59040;SDS011;44825;53.200;6.448;2024-02-26T06:45:37;4.55;;;1.65;;
59040;SDS011;44825;53.200;6.448;2024-02-26T06:48:17;4.18;;;1.60;;
59040;SDS011;44825;53.200;6.448;2024-02-26T06:50:43;3.58;;;1.70;;
59040;SDS011;44825;53.200;6.448;2024-02-26T06:53:09;3.83;;;1.92;;
59040;SDS011;44825;53.200;6.448;2024-02-26T06:55:35;4.25;;;1.90;;
59040;SDS011;44825;53.200;6.448;2024-02-26T06:58:05;4.20;;;1.83;;
59040;SDS011;44825;53.200;6.448;2024-02-26T07:00:31;5.05;;;2.30;;
59040;SDS011;44825;53.200;6.448;2024-02-26T07:02:57;4.25;;;2.00;;
59040;SDS011;44825;53.200;6.448;2024-02-26T07:05:23;6.20;;;1.70;;
59040;SDS011;44825;53.200;6.448;2024-02-26T07:08:02;7.45;;;2.10;;
59040;SDS011;44825;53.200;6.448;2024-02-26T07:10:28;5.60;;;2.17;;
59040;SDS011;44825;53.200;6.448;2024-02-26T07:13:08;4.50;;;2.00;;
59040;SDS011;44825;53.200;6.448;2024-02-26T07:15:35;4.47;;;1.67;;
59040;SDS011;44825;53.200;6.448;2024-02-26T07:18:14;4.70;;;2.00;;
59040;SDS011;44825;53.200;6.448;2024-02-26T07:20:40;3.60;;;1.80;;
59040;SDS011;44825;53.200;6.448;2024-02-26T07:23:19;5.10;;;2.40;;
59040;SDS011;44825;53.200;6.448;2024-02-26T07:25:45;4.73;;;2.00;;
59040;SDS011;44825;53.200;6.448;2024-02-26T07:28:13;3.97;;;2.03;;
59040;SDS011;44825;53.200;6.448;2024-02-26T07:30:40;5.07;;;2.20;;
59040;SDS011;44825;53.200;6.448;2024-02-26T07:33:06;4.28;;;1.80;;
59040;SDS011;44825;53.200;6.448;2024-02-26T07:35:32;3.95;;;1.98;;
59040;SDS011;44825;53.200;6.448;2024-02-26T07:37:58;5.53;;;2.00;;
59040;SDS011;44825;53.200;6.448;2024-02-26T07:40:24;5.00;;;2.10;;
59040;SDS011;44825;53.200;6.448;2024-02-26T07:42:50;4.28;;;2.05;;
59040;SDS011;44825;53.200;6.448;2024-02-26T07:45:16;5.22;;;2.33;;
59040;SDS011;44825;53.200;6.448;2024-02-26T07:47:45;3.97;;;2.55;;
59040;SDS011;44825;53.200;6.448;2024-02-26T07:50:11;3.95;;;1.77;;
59040;SDS011;44825;53.200;6.448;2024-02-26T07:52:37;3.25;;;1.77;;
59040;SDS011;44825;53.200;6.448;2024-02-26T07:55:03;4.07;;;1.90;;
59040;SDS011;44825;53.200;6.448;2024-02-26T07:57:30;4.85;;;1.75;;
59040;SDS011;44825;53.200;6.448;2024-02-26T07:59:56;5.85;;;1.70;;
59040;SDS011;44825;53.200;6.448;2024-02-26T08:02:22;4.93;;;2.13;;
59040;SDS011;44825;53.200;6.448;2024-02-26T08:04:54;3.10;;;1.67;;
59040;SDS011;44825;53.200;6.448;2024-02-26T08:07:20;3.63;;;1.73;;
59040;SDS011;44825;53.200;6.448;2024-02-26T08:09:47;5.10;;;1.63;;
59040;SDS011;44825;53.200;6.448;2024-02-26T08:12:13;9.63;;;1.77;;
59040;SDS011;44825;53.200;6.448;2024-02-26T08:14:39;3.85;;;1.40;;
59040;SDS011;44825;53.200;6.448;2024-02-26T08:17:11;4.45;;;1.63;;
59040;SDS011;44825;53.200;6.448;2024-02-26T08:19:43;2.33;;;1.20;;
59040;SDS011;44825;53.200;6.448;2024-02-26T08:22:09;4.35;;;1.30;;
59040;SDS011;44825;53.200;6.448;2024-02-26T08:24:41;3.42;;;1.20;;
59040;SDS011;44825;53.200;6.448;2024-02-26T08:27:07;3.63;;;1.42;;
59040;SDS011;44825;53.200;6.448;2024-02-26T08:29:33;3.58;;;1.40;;
59040;SDS011;44825;53.200;6.448;2024-02-26T08:31:59;2.85;;;1.30;;
59040;SDS011;44825;53.200;6.448;2024-02-26T08:34:25;4.28;;;0.88;;
59040;SDS011;44825;53.200;6.448;2024-02-26T08:39:17;2.85;;;1.10;;
59040;SDS011;44825;53.200;6.448;2024-02-26T08:41:44;1.60;;;0.80;;
59040;SDS011;44825;53.200;6.448;2024-02-26T08:44:16;3.72;;;1.00;;
59040;SDS011;44825;53.200;6.448;2024-02-26T08:46:42;2.13;;;0.70;;
59040;SDS011;44825;53.200;6.448;2024-02-26T08:49:10;0.73;;;0.57;;
59040;SDS011;44825;53.200;6.448;2024-02-26T08:51:41;1.15;;;0.60;;
59040;SDS011;44825;53.200;6.448;2024-02-26T08:54:07;1.83;;;0.70;;
59040;SDS011;44825;53.200;6.448;2024-02-26T08:56:33;2.08;;;0.90;;
59040;SDS011;44825;53.200;6.448;2024-02-26T08:58:59;2.45;;;0.80;;
59040;SDS011;44825;53.200;6.448;2024-02-26T09:01:28;2.22;;;0.85;;
59040;SDS011;44825;53.200;6.448;2024-02-26T09:03:55;2.33;;;1.13;;
59040;SDS011;44825;53.200;6.448;2024-02-26T09:06:21;2.85;;;1.05;;
59040;SDS011;44825;53.200;6.448;2024-02-26T09:08:47;1.75;;;0.90;;
59040;SDS011;44825;53.200;6.448;2024-02-26T09:11:26;3.28;;;1.13;;
59040;SDS011;44825;53.200;6.448;2024-02-26T09:13:52;2.78;;;1.10;;
59040;SDS011;44825;53.200;6.448;2024-02-26T09:16:18;2.95;;;0.90;;
59040;SDS011;44825;53.200;6.448;2024-02-26T09:18:58;2.47;;;0.80;;
59040;SDS011;44825;53.200;6.448;2024-02-26T09:21:56;5.53;;;1.10;;
59040;SDS011;44825;53.200;6.448;2024-02-26T09:24:29;3.67;;;0.85;;
59040;SDS011;44825;53.200;6.448;2024-02-26T09:26:55;4.03;;;1.08;;
59040;SDS011;44825;53.200;6.448;2024-02-26T09:29:21;2.58;;;0.98;;
59040;SDS011;44825;53.200;6.448;2024-02-26T09:31:53;2.92;;;1.05;;
59040;SDS011;44825;53.200;6.448;2024-02-26T09:34:19;3.72;;;1.30;;
59040;SDS011;44825;53.200;6.448;2024-02-26T09:36:45;5.25;;;2.10;;
59040;SDS011;44825;53.200;6.448;2024-02-26T09:39:11;2.92;;;1.50;;
59040;SDS011;44825;53.200;6.448;2024-02-26T09:41:39;4.32;;;1.38;;
59040;SDS011;44825;53.200;6.448;2024-02-26T09:44:06;7.53;;;2.03;;
59040;SDS011;44825;53.200;6.448;2024-02-26T09:46:32;2.15;;;1.08;;
59040;SDS011;44825;53.200;6.448;2024-02-26T09:48:59;3.00;;;1.27;;
59040;SDS011;44825;53.200;6.448;2024-02-26T09:51:25;2.58;;;1.38;;
59040;SDS011;44825;53.200;6.448;2024-02-26T09:53:52;4.50;;;2.03;;
59040;SDS011;44825;53.200;6.448;2024-02-26T09:58:44;5.88;;;1.88;;
59040;SDS011;44825;53.200;6.448;2024-02-26T10:01:16;3.78;;;1.55;;
59040;SDS011;44825;53.200;6.448;2024-02-26T10:03:42;5.45;;;1.60;;
59040;SDS011;44825;53.200;6.448;2024-02-26T10:06:12;4.97;;;1.67;;
59040;SDS011;44825;53.200;6.448;2024-02-26T10:08:38;3.85;;;1.63;;
59040;SDS011;44825;53.200;6.448;2024-02-26T10:11:18;5.15;;;1.95;;
59040;SDS011;44825;53.200;6.448;2024-02-26T10:13:51;4.15;;;2.00;;
59040;SDS011;44825;53.200;6.448;2024-02-26T10:16:25;5.05;;;1.88;;
59040;SDS011;44825;53.200;6.448;2024-02-26T10:18:58;4.13;;;1.67;;
59040;SDS011;44825;53.200;6.448;2024-02-26T10:21:24;3.08;;;1.30;;
59040;SDS011;44825;53.200;6.448;2024-02-26T10:23:51;6.57;;;1.52;;
59040;SDS011;44825;53.200;6.448;2024-02-26T10:26:17;3.42;;;1.50;;
59040;SDS011;44825;53.200;6.448;2024-02-26T10:28:44;4.47;;;1.35;;
59040;SDS011;44825;53.200;6.448;2024-02-26T10:31:11;3.13;;;1.35;;
59040;SDS011;44825;53.200;6.448;2024-02-26T10:33:39;4.00;;;1.42;;
59040;SDS011;44825;53.200;6.448;2024-02-26T10:36:12;5.03;;;1.52;;
59040;SDS011;44825;53.200;6.448;2024-02-26T10:38:38;3.90;;;1.30;;
59040;SDS011;44825;53.200;6.448;2024-02-26T10:41:10;5.43;;;1.20;;
59040;SDS011;44825;53.200;6.448;2024-02-26T10:43:51;3.35;;;0.90;;
59040;SDS011;44825;53.200;6.448;2024-02-26T10:46:17;4.30;;;1.20;;
59040;SDS011;44825;53.200;6.448;2024-02-26T10:51:15;2.28;;;1.00;;
59040;SDS011;44825;53.200;6.448;2024-02-26T10:53:41;2.42;;;1.10;;
59040;SDS011;44825;53.200;6.448;2024-02-26T10:56:09;4.97;;;2.15;;
59040;SDS011;44825;53.200;6.448;2024-02-26T10:58:36;1.90;;;1.30;;
59040;SDS011;44825;53.200;6.448;2024-02-26T11:01:02;4.30;;;1.40;;
59040;SDS011;44825;53.200;6.448;2024-02-26T11:03:42;7.45;;;2.45;;
59040;SDS011;44825;53.200;6.448;2024-02-26T11:06:09;5.05;;;1.20;;
59040;SDS011;44825;53.200;6.448;2024-02-26T11:08:35;4.20;;;1.50;;
59040;SDS011;44825;53.200;6.448;2024-02-26T11:11:01;3.50;;;1.20;;
59040;SDS011;44825;53.200;6.448;2024-02-26T11:13:28;4.50;;;1.40;;
59040;SDS011;44825;53.200;6.448;2024-02-26T11:15:57;4.35;;;1.60;;
59040;SDS011;44825;53.200;6.448;2024-02-26T11:18:25;3.88;;;1.60;;
59040;SDS011;44825;53.200;6.448;2024-02-26T11:20:52;4.07;;;1.60;;
59040;SDS011;44825;53.200;6.448;2024-02-26T11:23:22;5.18;;;2.00;;
59040;SDS011;44825;53.200;6.448;2024-02-26T11:25:49;4.75;;;1.70;;
59040;SDS011;44825;53.200;6.448;2024-02-26T11:28:15;4.30;;;2.35;;
59040;SDS011;44825;53.200;6.448;2024-02-26T11:30:44;4.65;;;2.00;;
59040;SDS011;44825;53.200;6.448;2024-02-26T11:33:11;4.50;;;1.88;;
59040;SDS011;44825;53.200;6.448;2024-02-26T11:35:38;3.28;;;1.70;;
59040;SDS011;44825;53.200;6.448;2024-02-26T11:38:04;7.40;;;2.08;;
59040;SDS011;44825;53.200;6.448;2024-02-26T11:40:32;5.13;;;1.50;;
59040;SDS011;44825;53.200;6.448;2024-02-26T11:55:31;4.10;;;1.90;;
59040;SDS011;44825;53.200;6.448;2024-02-26T12:04:22;6.38;;;2.10;;
59040;SDS011;44825;53.200;6.448;2024-02-26T12:06:52;5.10;;;2.30;;
59040;SDS011;44825;53.200;6.448;2024-02-26T12:09:37;5.57;;;2.40;;
59040;SDS011;44825;53.200;6.448;2024-02-26T12:12:04;4.90;;;2.78;;
59040;SDS011;44825;53.200;6.448;2024-02-26T12:14:50;6.70;;;3.03;;
59040;SDS011;44825;53.200;6.448;2024-02-26T12:17:20;7.30;;;2.95;;
59040;SDS011;44825;53.200;6.448;2024-02-26T12:19:47;6.68;;;3.00;;
59040;SDS011;44825;53.200;6.448;2024-02-26T12:22:13;7.38;;;2.80;;
59040;SDS011;44825;53.200;6.448;2024-02-26T12:24:45;6.63;;;2.78;;
59040;SDS011;44825;53.200;6.448;2024-02-26T12:27:11;5.53;;;2.90;;
59040;SDS011;44825;53.200;6.448;2024-02-26T12:29:37;7.05;;;3.30;;
59040;SDS011;44825;53.200;6.448;2024-02-26T12:32:04;6.43;;;2.95;;
59040;SDS011;44825;53.200;6.448;2024-02-26T12:34:31;6.35;;;3.17;;
59040;SDS011;44825;53.200;6.448;2024-02-26T12:36:57;7.32;;;3.28;;
59040;SDS011;44825;53.200;6.448;2024-02-26T12:39:23;7.10;;;3.00;;
59040;SDS011;44825;53.200;6.448;2024-02-26T12:41:50;8.25;;;3.47;;
59040;SDS011;44825;53.200;6.448;2024-02-26T12:44:16;7.10;;;3.38;;
59040;SDS011;44825;53.200;6.448;2024-02-26T12:46:42;7.88;;;3.20;;
59040;SDS011;44825;53.200;6.448;2024-02-26T12:49:08;6.25;;;3.28;;
59040;SDS011;44825;53.200;6.448;2024-02-26T12:51:40;8.38;;;4.15;;
59040;SDS011;44825;53.200;6.448;2024-02-26T12:54:07;7.22;;;3.05;;
59040;SDS011;44825;53.200;6.448;2024-02-26T12:56:33;7.30;;;3.03;;
59040;SDS011;44825;53.200;6.448;2024-02-26T12:58:59;5.35;;;3.10;;
59040;SDS011;44825;53.200;6.448;2024-02-26T13:01:26;8.65;;;4.00;;
59040;SDS011;44825;53.200;6.448;2024-02-26T13:03:52;7.45;;;3.33;;
59040;SDS011;44825;53.200;6.448;2024-02-26T13:06:19;7.75;;;3.22;;
59040;SDS011;44825;53.200;6.448;2024-02-26T13:08:46;8.20;;;3.67;;
59040;SDS011;44825;53.200;6.448;2024-02-26T13:11:13;6.15;;;3.40;;
59040;SDS011;44825;53.200;6.448;2024-02-26T13:13:39;7.95;;;3.75;;
59040;SDS011;44825;53.200;6.448;2024-02-26T13:16:05;7.45;;;3.67;;
59040;SDS011;44825;53.200;6.448;2024-02-26T13:18:33;10.23;;;4.50;;
59040;SDS011;44825;53.200;6.448;2024-02-26T13:21:09;9.23;;;3.78;;
59040;SDS011;44825;53.200;6.448;2024-02-26T13:23:35;10.68;;;3.88;;
59040;SDS011;44825;53.200;6.448;2024-02-26T13:26:01;8.25;;;3.42;;
59040;SDS011;44825;53.200;6.448;2024-02-26T13:28:27;8.45;;;3.53;;
59040;SDS011;44825;53.200;6.448;2024-02-26T13:30:54;8.75;;;3.20;;
59040;SDS011;44825;53.200;6.448;2024-02-26T13:33:25;6.82;;;3.17;;
59040;SDS011;44825;53.200;6.448;2024-02-26T13:35:51;8.52;;;3.20;;
59040;SDS011;44825;53.200;6.448;2024-02-26T13:38:18;6.85;;;3.33;;
59040;SDS011;44825;53.200;6.448;2024-02-26T13:40:44;7.90;;;3.78;;
59040;SDS011;44825;53.200;6.448;2024-02-26T13:43:10;7.57;;;3.83;;
59040;SDS011;44825;53.200;6.448;2024-02-26T13:45:36;9.38;;;3.55;;
59040;SDS011;44825;53.200;6.448;2024-02-26T13:48:03;6.88;;;3.90;;
59040;SDS011;44825;53.200;6.448;2024-02-26T13:50:30;7.20;;;3.33;;
59040;SDS011;44825;53.200;6.448;2024-02-26T13:52:56;7.60;;;3.78;;
59040;SDS011;44825;53.200;6.448;2024-02-26T13:55:23;7.40;;;4.07;;
59040;SDS011;44825;53.200;6.448;2024-02-26T13:57:51;7.65;;;4.22;;
59040;SDS011;44825;53.200;6.448;2024-02-26T14:00:19;7.28;;;4.10;;
59040;SDS011;44825;53.200;6.448;2024-02-26T14:02:45;7.75;;;4.38;;
59040;SDS011;44825;53.200;6.448;2024-02-26T14:05:11;9.57;;;4.32;;
59040;SDS011;44825;53.200;6.448;2024-02-26T14:07:37;7.55;;;5.03;;
59040;SDS011;44825;53.200;6.448;2024-02-26T14:10:04;8.07;;;4.43;;
59040;SDS011;44825;53.200;6.448;2024-02-26T14:12:30;7.72;;;4.53;;
59040;SDS011;44825;53.200;6.448;2024-02-26T14:14:56;8.10;;;4.55;;
59040;SDS011;44825;53.200;6.448;2024-02-26T14:17:25;7.38;;;4.10;;
59040;SDS011;44825;53.200;6.448;2024-02-26T14:19:51;11.23;;;4.75;;
59040;SDS011;44825;53.200;6.448;2024-02-26T14:22:17;7.60;;;4.03;;
59040;SDS011;44825;53.200;6.448;2024-02-26T14:24:43;6.80;;;3.45;;
59040;SDS011;44825;53.200;6.448;2024-02-26T14:27:10;8.27;;;3.80;;
59040;SDS011;44825;53.200;6.448;2024-02-26T14:29:40;7.60;;;3.90;;
59040;SDS011;44825;53.200;6.448;2024-02-26T14:32:08;7.60;;;3.67;;
59040;SDS011;44825;53.200;6.448;2024-02-26T14:34:34;10.90;;;4.30;;
59040;SDS011;44825;53.200;6.448;2024-02-26T14:37:00;6.22;;;3.33;;
59040;SDS011;44825;53.200;6.448;2024-02-26T14:39:26;8.52;;;4.30;;
59040;SDS011;44825;53.200;6.448;2024-02-26T14:41:52;7.20;;;3.40;;
59040;SDS011;44825;53.200;6.448;2024-02-26T14:44:18;7.35;;;4.22;;
59040;SDS011;44825;53.200;6.448;2024-02-26T14:46:44;8.13;;;3.40;;
59040;SDS011;44825;53.200;6.448;2024-02-26T14:49:10;7.28;;;3.95;;
59040;SDS011;44825;53.200;6.448;2024-02-26T14:51:37;7.60;;;3.67;;
59040;SDS011;44825;53.200;6.448;2024-02-26T14:54:03;7.70;;;4.00;;
59040;SDS011;44825;53.200;6.448;2024-02-26T14:56:29;7.03;;;3.58;;
59040;SDS011;44825;53.200;6.448;2024-02-26T14:58:56;7.38;;;3.60;;
59040;SDS011;44825;53.200;6.448;2024-02-26T15:01:23;7.43;;;3.90;;
59040;SDS011;44825;53.200;6.448;2024-02-26T15:03:49;6.70;;;3.60;;
59040;SDS011;44825;53.200;6.448;2024-02-26T15:06:16;7.68;;;3.45;;
59040;SDS011;44825;53.200;6.448;2024-02-26T15:08:42;9.60;;;3.78;;
59040;SDS011;44825;53.200;6.448;2024-02-26T15:11:08;11.25;;;4.28;;
59040;SDS011;44825;53.200;6.448;2024-02-26T15:13:34;6.18;;;3.47;;
59040;SDS011;44825;53.200;6.448;2024-02-26T15:16:01;8.13;;;3.55;;
59040;SDS011;44825;53.200;6.448;2024-02-26T15:18:27;6.32;;;3.08;;
59040;SDS011;44825;53.200;6.448;2024-02-26T15:20:53;8.73;;;4.15;;
59040;SDS011;44825;53.200;6.448;2024-02-26T15:23:20;7.57;;;3.83;;
59040;SDS011;44825;53.200;6.448;2024-02-26T15:25:46;6.32;;;3.50;;
59040;SDS011;44825;53.200;6.448;2024-02-26T15:28:12;7.80;;;3.63;;